createdAt,value
2022-12-25T00:02:22.801Z,95002.47
2022-12-25T00:04:49.425Z,95004.97
2022-12-25T00:07:16.135Z,95001.31
2022-12-25T00:09:43.075Z,94997.53
2022-12-25T00:12:09.798Z,94991.22
2022-12-25T00:14:36.463Z,94986.78
2022-12-25T00:17:03.167Z,94987.47
2022-12-25T00:19:32.114Z,94983.00
2022-12-25T00:21:58.840Z,94986.47
2022-12-25T00:24:25.245Z,94973.75
2022-12-25T00:26:52.424Z,94967.16
2022-12-25T00:29:18.862Z,94971.63
2022-12-25T00:31:45.940Z,94965.50
2022-12-25T00:34:12.505Z,94964.84
2022-12-25T00:36:43.317Z,94962.56
2022-12-25T00:39:09.750Z,94959.59
2022-12-25T00:41:36.465Z,94960.28
2022-12-25T00:44:02.818Z,94953.38
2022-12-25T00:46:29.342Z,94950.78
2022-12-25T00:48:55.784Z,94947.00
2022-12-25T00:51:24.897Z,94946.19
2022-12-25T00:53:51.361Z,94950.34
2022-12-25T00:56:17.907Z,94951.50
2022-12-25T00:58:46.968Z,94953.28
2022-12-25T01:01:13.551Z,94950.00
2022-12-25T01:03:41.434Z,94951.50
2022-12-25T01:06:09.892Z,94946.22
2022-12-25T01:08:38.641Z,94947.38
2022-12-25T01:11:05.074Z,94965.50
2022-12-25T01:13:39.028Z,94947.84
2022-12-25T01:16:07.951Z,94959.88
2022-12-25T01:18:35.480Z,94957.72
2022-12-25T01:21:02.672Z,94959.69
2022-12-25T01:23:29.047Z,94946.03
2022-12-25T01:25:57.745Z,94954.97
2022-12-25T01:28:24.205Z,94959.41
2022-12-25T01:30:50.583Z,94963.53
2022-12-25T01:33:16.932Z,94963.69
2022-12-25T01:35:43.680Z,94970.63
2022-12-25T01:38:10.396Z,94968.94
2022-12-25T01:40:38.377Z,94973.25
2022-12-25T01:43:05.205Z,94973.72
2022-12-25T01:45:33.928Z,94978.34
2022-12-25T01:48:00.516Z,94976.88
2022-12-25T01:50:27.755Z,94976.22
2022-12-25T01:52:54.451Z,94972.25
2022-12-25T01:55:22.965Z,94972.91
2022-12-25T01:57:49.760Z,94977.84
2022-12-25T02:00:17.122Z,94980.00
2022-12-25T02:02:45.143Z,94983.97
2022-12-25T02:05:14.574Z,94984.75
2022-12-25T02:07:40.963Z,94986.25
2022-12-25T02:10:07.607Z,94982.63
2022-12-25T02:12:34.214Z,94985.75
2022-12-25T02:15:05.433Z,94989.22
2022-12-25T02:17:32.740Z,94977.47
2022-12-25T02:19:59.166Z,94983.41
2022-12-25T02:22:26.032Z,94985.06
2022-12-25T02:24:52.646Z,94977.16
2022-12-25T02:27:19.363Z,94972.50
2022-12-25T02:29:48.042Z,94978.63
2022-12-25T02:32:15.293Z,94976.97
2022-12-25T02:34:44.429Z,94977.78
2022-12-25T02:37:11.690Z,94978.63
2022-12-25T02:39:39.053Z,94968.88
2022-12-25T02:42:05.488Z,94971.34
2022-12-25T02:44:32.186Z,94966.88
2022-12-25T02:46:58.673Z,94959.13
2022-12-25T02:49:25.208Z,94966.22
2022-12-25T02:51:51.780Z,94952.22
2022-12-25T02:54:18.305Z,94955.66
2022-12-25T02:56:47.020Z,94952.03
2022-12-25T02:59:13.661Z,94945.78
2022-12-25T03:01:42.813Z,94938.22
2022-12-25T03:04:09.385Z,94942.50
2022-12-25T03:06:35.776Z,94939.72
2022-12-25T03:09:02.593Z,94936.91
2022-12-25T03:11:29.284Z,94934.25
2022-12-25T03:13:56.998Z,94935.09
2022-12-25T03:16:26.580Z,94927.31
2022-12-25T03:18:55.569Z,94923.69
2022-12-25T03:21:23.991Z,94920.72
2022-12-25T03:23:50.707Z,94922.41
2022-12-25T03:26:17.153Z,94915.97
2022-12-25T03:28:45.810Z,94919.13
2022-12-25T03:31:12.336Z,94910.25
2022-12-25T03:33:45.706Z,94915.88
2022-12-25T03:36:12.481Z,94910.25
2022-12-25T03:38:38.869Z,94912.38
2022-12-25T03:41:05.285Z,94907.09
2022-12-25T03:43:34.408Z,94905.28
2022-12-25T03:46:00.866Z,94912.84
2022-12-25T03:48:27.392Z,94904.94
2022-12-25T03:50:53.876Z,94898.31
2022-12-25T03:53:20.303Z,94893.69
2022-12-25T03:55:50.810Z,94889.28
2022-12-25T03:58:23.101Z,94886.50
2022-12-25T04:00:49.729Z,94886.16
2022-12-25T04:03:16.738Z,94882.38
2022-12-25T04:05:50.620Z,94885.50
2022-12-25T04:08:17.339Z,94880.22
2022-12-25T04:10:43.984Z,94879.22
2022-12-25T04:13:10.670Z,94881.53
2022-12-25T04:15:37.607Z,94880.88
2022-12-25T04:18:04.016Z,94879.22
2022-12-25T04:20:30.432Z,94880.53
2022-12-25T04:22:56.865Z,94891.13
2022-12-25T04:25:23.313Z,94898.88
2022-12-25T04:27:50.772Z,94898.72
2022-12-25T04:30:18.683Z,94896.53
2022-12-25T04:32:46.473Z,94895.56
2022-12-25T04:35:13.036Z,94903.47
2022-12-25T04:37:41.950Z,94896.91
2022-12-25T04:40:08.348Z,94896.91
2022-12-25T04:42:35.208Z,94896.53
2022-12-25T04:45:02.648Z,94900.47
2022-12-25T04:47:29.092Z,94902.78
2022-12-25T04:49:55.811Z,94902.63
2022-12-25T04:52:22.356Z,94907.88
2022-12-25T04:54:48.824Z,94897.34
2022-12-25T04:57:15.285Z,94896.31
2022-12-25T04:59:41.853Z,94906.22
2022-12-25T05:02:08.425Z,94897.34
2022-12-25T05:04:35.191Z,94895.34
2022-12-25T05:07:02.250Z,94891.69
2022-12-25T05:09:28.866Z,94893.19
2022-12-25T05:11:55.349Z,94885.91
2022-12-25T05:14:21.934Z,94873.72
2022-12-25T05:16:48.690Z,94868.25
2022-12-25T05:19:15.202Z,94871.88
2022-12-25T05:21:46.050Z,94871.53
2022-12-25T05:24:12.437Z,94870.19
2022-12-25T05:26:41.392Z,94870.03
2022-12-25T05:29:08.166Z,94870.66
2022-12-25T05:31:34.726Z,94867.84
2022-12-25T05:34:01.209Z,94854.66
2022-12-25T05:36:29.989Z,94856.13
2022-12-25T05:38:59.417Z,94851.22
2022-12-25T05:41:30.643Z,94851.03
2022-12-25T05:44:00.532Z,94851.72
2022-12-25T05:46:27.592Z,94856.34
2022-12-25T05:48:57.664Z,94847.44
2022-12-25T05:51:24.049Z,94849.91
2022-12-25T05:53:50.723Z,94830.59
2022-12-25T05:56:17.423Z,94840.69
2022-12-25T05:58:43.787Z,94836.75
2022-12-25T06:01:10.493Z,94843.19
2022-12-25T06:03:37.008Z,94846.19
2022-12-25T06:06:03.816Z,94839.44
2022-12-25T06:08:30.835Z,94828.25
2022-12-25T06:10:57.476Z,94831.34
2022-12-25T06:13:23.929Z,94834.00
2022-12-25T06:15:50.636Z,94839.59
2022-12-25T06:18:19.586Z,94838.63
2022-12-25T06:20:45.955Z,94852.78
2022-12-25T06:23:15.391Z,94847.03
2022-12-25T06:25:43.353Z,94845.06
2022-12-25T06:28:09.868Z,94854.44
2022-12-25T06:30:36.344Z,94847.66
2022-12-25T06:33:03.085Z,94857.38
2022-12-25T06:35:30.735Z,94858.91
2022-12-25T06:37:58.218Z,94859.25
2022-12-25T06:40:24.671Z,94857.28
2022-12-25T06:42:52.402Z,94858.91
2022-12-25T06:45:18.973Z,94856.44
2022-12-25T06:47:45.381Z,94859.91
2022-12-25T06:50:11.820Z,94865.00
2022-12-25T06:52:38.409Z,94872.94
2022-12-25T06:55:06.103Z,94867.00
2022-12-25T06:57:35.343Z,94861.72
2022-12-25T07:00:02.460Z,94859.09
2022-12-25T07:02:31.137Z,94867.00
2022-12-25T07:04:58.835Z,94856.44
2022-12-25T07:07:25.782Z,94860.06
2022-12-25T07:09:52.910Z,94869.63
2022-12-25T07:12:20.802Z,94870.16
2022-12-25T07:14:47.610Z,94865.06
2022-12-25T07:17:14.342Z,94855.47
2022-12-25T07:19:45.119Z,94863.56
2022-12-25T07:22:14.516Z,94871.22
2022-12-25T07:24:41.080Z,94870.06
2022-12-25T07:27:07.566Z,94878.34
2022-12-25T07:29:34.133Z,94872.75
2022-12-25T07:32:01.291Z,94877.91
2022-12-25T07:34:28.128Z,94875.09
2022-12-25T07:36:54.850Z,94878.56
2022-12-25T07:39:24.012Z,94878.69
2022-12-25T07:41:50.621Z,94886.47
2022-12-25T07:44:17.314Z,94884.13
2022-12-25T07:46:43.754Z,94889.06
2022-12-25T07:49:10.315Z,94896.63
2022-12-25T07:51:36.685Z,94901.41
2022-12-25T07:54:03.397Z,94902.72
2022-12-25T07:56:29.827Z,94908.63
2022-12-25T07:59:00.298Z,94902.34
2022-12-25T08:01:29.179Z,94913.75
2022-12-25T08:03:56.825Z,94914.22
2022-12-25T08:06:23.612Z,94916.56
2022-12-25T08:08:50.444Z,94921.00
2022-12-25T08:11:16.997Z,94919.84
2022-12-25T08:13:43.504Z,94924.13
2022-12-25T08:16:10.267Z,94922.97
2022-12-25T08:18:38.994Z,94920.31
2022-12-25T08:21:05.792Z,94920.88
2022-12-25T08:23:32.506Z,94917.91
2022-12-25T08:26:04.520Z,94920.19
2022-12-25T08:28:31.728Z,94920.06
2022-12-25T08:31:00.299Z,94925.31
2022-12-25T08:33:26.918Z,94920.56
2022-12-25T08:35:53.912Z,94922.34
2022-12-25T08:38:20.742Z,94925.34
2022-12-25T08:40:47.559Z,94927.16
2022-12-25T08:43:13.937Z,94918.75
2022-12-25T08:45:40.457Z,94923.81
2022-12-25T08:48:07.117Z,94927.94
2022-12-25T08:50:34.386Z,94925.84
2022-12-25T08:53:01.099Z,94925.38
2022-12-25T08:55:28.970Z,94922.91
2022-12-25T08:57:58.408Z,94918.13
2022-12-25T09:00:29.409Z,94926.97
2022-12-25T09:02:58.129Z,94924.50
2022-12-25T09:05:25.602Z,94941.63
2022-12-25T09:07:52.061Z,94929.56
2022-12-25T09:10:20.695Z,94937.13
2022-12-25T09:12:47.271Z,94946.47
2022-12-25T09:15:14.209Z,94952.44
2022-12-25T09:17:40.882Z,94943.19
2022-12-25T09:20:15.039Z,94936.94
2022-12-25T09:22:43.004Z,94942.34
2022-12-25T09:25:09.452Z,94940.50
2022-12-25T09:27:35.875Z,94941.00
2022-12-25T09:30:04.746Z,94948.41
2022-12-25T09:32:33.351Z,94953.69
2022-12-25T09:35:02.133Z,94949.03
2022-12-25T09:37:28.562Z,94959.69
2022-12-25T09:39:54.916Z,94952.59
2022-12-25T09:42:21.469Z,94957.06
2022-12-25T09:44:47.859Z,94959.59
2022-12-25T09:47:14.260Z,94961.88
2022-12-25T09:49:40.720Z,94962.53
2022-12-25T09:52:07.289Z,94956.38
2022-12-25T09:54:33.675Z,94952.09
2022-12-25T09:57:01.158Z,94957.34
2022-12-25T09:59:27.551Z,94949.00
2022-12-25T10:01:54.046Z,94940.06
2022-12-25T10:04:20.505Z,94942.50
2022-12-25T10:06:47.143Z,94937.38
2022-12-25T10:09:13.469Z,94926.66
2022-12-25T10:11:43.130Z,94931.94
2022-12-25T10:14:10.077Z,94930.97
2022-12-25T10:16:36.479Z,94929.16
2022-12-25T10:19:02.854Z,94934.91
2022-12-25T10:21:29.229Z,94924.66
2022-12-25T10:23:55.613Z,94918.97
2022-12-25T10:26:22.014Z,94910.38
2022-12-25T10:28:48.517Z,94917.19
2022-12-25T10:31:14.927Z,94926.44
2022-12-25T10:33:41.361Z,94927.25
2022-12-25T10:36:07.734Z,94936.19
2022-12-25T10:38:34.201Z,94941.66
2022-12-25T10:41:00.739Z,94931.44
2022-12-25T10:43:27.147Z,94935.38
2022-12-25T10:45:53.499Z,94935.34
2022-12-25T10:48:19.849Z,94935.50
2022-12-25T10:50:46.236Z,94930.56
2022-12-25T10:53:12.640Z,94922.44
2022-12-25T10:55:39.071Z,94915.31
2022-12-25T10:58:05.476Z,94904.53
2022-12-25T11:00:31.838Z,94900.38
2022-12-25T11:02:58.945Z,94905.13
2022-12-25T11:05:25.646Z,94911.06
2022-12-25T11:07:52.034Z,94892.25
2022-12-25T11:10:18.493Z,94892.00
2022-12-25T11:12:45.201Z,94880.50
2022-12-25T11:15:11.590Z,94875.81
2022-12-25T11:17:38.131Z,94860.28
2022-12-25T11:20:07.050Z,94851.69
2022-12-25T11:22:35.954Z,94847.31
2022-12-25T11:25:02.537Z,94834.63
2022-12-25T11:27:30.980Z,94834.75
2022-12-25T11:29:57.756Z,94818.84
2022-12-25T11:32:24.252Z,94786.81
2022-12-25T11:34:50.876Z,94812.00
2022-12-25T11:37:17.483Z,94834.44
2022-12-25T11:39:44.077Z,94853.09
2022-12-25T11:42:11.889Z,94845.97
2022-12-25T11:44:39.614Z,94863.97
2022-12-25T11:47:06.593Z,94866.03
2022-12-25T11:49:33.154Z,94850.78
2022-12-25T11:52:01.873Z,94870.41
2022-12-25T11:54:29.059Z,94869.06
2022-12-25T11:56:58.023Z,94865.69
2022-12-25T11:59:27.142Z,94872.88
2022-12-25T12:01:53.613Z,94876.72
2022-12-25T12:04:23.127Z,94871.06
2022-12-25T12:06:54.059Z,94862.75
2022-12-25T12:09:20.559Z,94858.34
2022-12-25T12:11:48.162Z,94864.84
2022-12-25T12:14:15.010Z,94844.47
2022-12-25T12:16:42.111Z,94845.56
2022-12-25T12:19:08.634Z,94867.03
2022-12-25T12:21:36.740Z,94848.25
2022-12-25T12:24:04.523Z,94864.56
2022-12-25T12:26:31.466Z,94863.22
2022-12-25T12:28:58.024Z,94864.66
2022-12-25T12:31:27.768Z,94869.59
2022-12-25T12:33:56.623Z,94869.53
2022-12-25T12:36:34.527Z,94869.41
2022-12-25T12:39:01.809Z,94880.81
2022-12-25T12:41:28.412Z,94865.09
2022-12-25T12:43:54.779Z,94867.53
2022-12-25T12:46:26.204Z,94866.44
2022-12-25T12:48:57.447Z,94868.66
2022-12-25T12:51:24.162Z,94866.91
2022-12-25T12:53:50.544Z,94860.25
2022-12-25T12:56:16.926Z,94851.97
2022-12-25T12:58:46.749Z,94848.94
2022-12-25T13:01:15.853Z,94846.28
2022-12-25T13:03:44.800Z,94849.56
2022-12-25T13:06:12.230Z,94850.22
2022-12-25T13:08:39.433Z,94868.53
2022-12-25T13:11:05.878Z,94863.25
2022-12-25T13:13:32.989Z,94860.16
2022-12-25T13:15:59.604Z,94840.47
2022-12-25T13:18:26.051Z,94850.84
2022-12-25T13:20:52.602Z,94853.25
2022-12-25T13:23:19.313Z,94855.25
2022-12-25T13:25:45.687Z,94851.13
2022-12-25T13:28:12.141Z,94863.91
2022-12-25T13:30:38.715Z,94869.34
2022-12-25T13:33:06.191Z,94866.53
2022-12-25T13:35:32.847Z,94861.34
2022-12-25T13:37:59.573Z,94869.06
2022-12-25T13:40:25.934Z,94862.78
2022-12-25T13:42:52.879Z,94864.06
2022-12-25T13:45:19.536Z,94869.00
2022-12-25T13:47:51.463Z,94871.28
2022-12-25T13:50:22.285Z,94876.38
2022-12-25T13:52:48.901Z,94869.09
2022-12-25T13:55:15.548Z,94871.56
2022-12-25T13:57:42.046Z,94878.50
2022-12-25T14:00:08.520Z,94865.91
2022-12-25T14:02:37.490Z,94869.19
2022-12-25T14:05:04.052Z,94857.97
2022-12-25T14:07:30.972Z,94858.97
2022-12-25T14:09:57.537Z,94865.91
2022-12-25T14:12:24.413Z,94855.56
2022-12-25T14:14:51.148Z,94867.44
2022-12-25T14:17:17.908Z,94859.50
2022-12-25T14:19:44.284Z,94859.09
2022-12-25T14:22:10.700Z,94861.66
2022-12-25T14:24:37.180Z,94860.38
2022-12-25T14:27:03.684Z,94857.88
2022-12-25T14:29:30.080Z,94853.31
2022-12-25T14:31:56.776Z,94853.81
2022-12-25T14:34:23.607Z,94838.75
2022-12-25T14:36:49.992Z,94840.41
2022-12-25T14:39:16.458Z,94841.22
2022-12-25T14:41:45.123Z,94843.88
2022-12-25T14:44:11.516Z,94849.31
2022-12-25T14:46:38.196Z,94854.03
2022-12-25T14:49:05.047Z,94851.22
2022-12-25T14:51:31.566Z,94840.00
2022-12-25T14:53:58.132Z,94839.81
2022-12-25T14:56:24.911Z,94842.00
2022-12-25T14:58:51.379Z,94840.88
2022-12-25T15:01:18.127Z,94836.78
2022-12-25T15:03:44.880Z,94847.53
2022-12-25T15:06:11.396Z,94835.50
2022-12-25T15:08:38.229Z,94848.41
2022-12-25T15:11:06.180Z,94844.31
2022-12-25T15:13:34.006Z,94840.91
2022-12-25T15:16:00.394Z,94835.63
2022-12-25T15:18:27.329Z,94837.63
2022-12-25T15:20:53.711Z,94833.34
2022-12-25T15:23:20.841Z,94844.16
2022-12-25T15:25:47.701Z,94830.09
2022-12-25T15:28:17.462Z,94825.53
2022-12-25T15:30:43.889Z,94831.16
2022-12-25T15:33:10.284Z,94820.63
2022-12-25T15:35:36.749Z,94835.38
2022-12-25T15:38:04.018Z,94833.25
2022-12-25T15:40:30.414Z,94840.19
2022-12-25T15:42:56.870Z,94841.53
2022-12-25T15:45:23.261Z,94837.31
2022-12-25T15:47:50.305Z,94840.00
2022-12-25T15:50:17.067Z,94837.41
2022-12-25T15:52:44.650Z,94832.81
2022-12-25T15:55:11.042Z,94825.59
2022-12-25T15:57:37.668Z,94828.53
2022-12-25T16:00:05.024Z,94838.81
2022-12-25T16:02:33.124Z,94836.50
2022-12-25T16:05:02.115Z,94840.16
2022-12-25T16:07:33.571Z,94851.56
2022-12-25T16:09:59.964Z,94849.59
2022-12-25T16:12:27.899Z,94849.25
2022-12-25T16:14:55.208Z,94852.91
2022-12-25T16:17:22.445Z,94852.44
2022-12-25T16:19:49.207Z,94849.47
2022-12-25T16:22:15.713Z,94860.03
2022-12-25T16:24:43.144Z,94874.53
2022-12-25T16:27:09.703Z,94874.88
2022-12-25T16:29:36.081Z,94871.41
2022-12-25T16:32:02.599Z,94881.94
2022-12-25T16:34:29.123Z,94884.59
2022-12-25T16:36:58.734Z,94875.00
2022-12-25T16:39:25.225Z,94876.84
2022-12-25T16:41:52.608Z,94876.03
2022-12-25T16:44:24.290Z,94878.47
2022-12-25T16:46:51.131Z,94887.41
2022-12-25T16:49:19.919Z,94884.09
2022-12-25T16:51:46.381Z,94880.31
2022-12-25T16:54:15.267Z,94878.50
2022-12-25T16:56:43.012Z,94883.28
2022-12-25T16:59:09.633Z,94883.47
2022-12-25T17:01:36.335Z,94885.59
2022-12-25T17:04:05.077Z,94894.31
2022-12-25T17:06:34.078Z,94895.16
2022-12-25T17:09:00.528Z,94896.63
2022-12-25T17:11:27.153Z,94898.59
2022-12-25T17:13:56.117Z,94895.63
2022-12-25T17:16:22.524Z,94892.69
2022-12-25T17:18:50.049Z,94897.59
2022-12-25T17:21:18.114Z,94905.03
2022-12-25T17:23:44.642Z,94902.72
2022-12-25T17:26:11.041Z,94914.72
2022-12-25T17:28:37.888Z,94912.75
2022-12-25T17:31:04.991Z,94922.63
2022-12-25T17:33:32.203Z,94916.38
2022-12-25T17:36:03.648Z,94920.81
2022-12-25T17:38:30.601Z,94922.47
2022-12-25T17:40:57.084Z,94917.19
2022-12-25T17:43:25.500Z,94918.38
2022-12-25T17:45:52.421Z,94902.41
2022-12-25T17:48:20.504Z,94904.53
2022-12-25T17:50:49.597Z,94902.72
2022-12-25T17:53:16.650Z,94909.94
2022-12-25T17:55:43.492Z,94903.88
2022-12-25T17:58:09.968Z,94902.22
2022-12-25T18:00:36.407Z,94905.19
2022-12-25T18:03:10.915Z,94903.47
2022-12-25T18:05:42.058Z,94907.41
2022-12-25T18:08:08.503Z,94920.28
2022-12-25T18:10:35.001Z,94915.97
2022-12-25T18:13:03.956Z,94913.34
2022-12-25T18:15:30.440Z,94916.63
2022-12-25T18:17:56.829Z,94914.16
2022-12-25T18:20:23.334Z,94921.06
2022-12-25T18:22:50.036Z,94926.03
2022-12-25T18:25:17.447Z,94926.97
2022-12-25T18:27:43.918Z,94923.69
2022-12-25T18:30:10.834Z,94926.84
2022-12-25T18:32:37.765Z,94913.50
2022-12-25T18:35:04.333Z,94911.72
2022-12-25T18:37:34.467Z,94912.38
2022-12-25T18:40:06.217Z,94915.97
2022-12-25T18:42:32.783Z,94918.28
2022-12-25T18:44:59.347Z,94908.72
2022-12-25T18:47:25.754Z,94919.59
2022-12-25T18:49:54.018Z,94919.59
2022-12-25T18:52:48.335Z,94923.22
2022-12-25T18:55:07.719Z,94932.44
2022-12-25T18:57:34.106Z,94922.72
2022-12-25T19:00:00.730Z,94921.44
2022-12-25T19:02:27.496Z,94927.53
2022-12-25T19:04:56.455Z,94910.91
2022-12-25T19:07:25.260Z,94919.75
2022-12-25T19:09:53.869Z,94927.00
2022-12-25T19:12:20.416Z,94925.38
2022-12-25T19:14:48.365Z,94924.88
2022-12-25T19:17:15.126Z,94931.09
2022-12-25T19:19:41.533Z,94923.38
2022-12-25T19:22:08.105Z,94925.84
2022-12-25T19:24:34.459Z,94928.16
2022-12-25T19:27:00.831Z,94939.00
2022-12-25T19:29:28.075Z,94936.03
2022-12-25T19:31:54.584Z,94930.91
2022-12-25T19:34:21.089Z,94939.94
2022-12-25T19:36:47.737Z,94941.69
2022-12-25T19:39:16.308Z,94945.94
2022-12-25T19:41:43.009Z,94958.41
2022-12-25T19:44:09.582Z,94947.34
2022-12-25T19:46:35.978Z,94958.69
2022-12-25T19:49:02.803Z,94956.91
2022-12-25T19:51:29.891Z,94954.31
2022-12-25T19:54:03.537Z,94953.00
2022-12-25T19:56:30.231Z,94953.34
2022-12-25T19:58:56.832Z,94957.31
2022-12-25T20:01:23.586Z,94953.63
2022-12-25T20:03:50.350Z,94959.56
2022-12-25T20:06:16.832Z,94964.75
2022-12-25T20:08:43.489Z,94954.56
2022-12-25T20:11:10.281Z,94969.72
2022-12-25T20:13:36.765Z,94963.94
2022-12-25T20:16:03.314Z,94978.28
2022-12-25T20:18:32.184Z,94975.34
2022-12-25T20:20:58.756Z,94975.00
2022-12-25T20:23:25.150Z,94981.78
2022-12-25T20:25:54.455Z,94989.38
2022-12-25T20:28:21.494Z,94981.78
2022-12-25T20:30:48.404Z,94992.09
2022-12-25T20:33:14.852Z,94995.38
2022-12-25T20:35:43.107Z,95000.66
2022-12-25T20:38:09.870Z,95002.63
2022-12-25T20:41:00.094Z,94999.47
2022-12-25T20:43:23.023Z,95008.38
2022-12-25T20:45:51.604Z,95007.22
2022-12-25T20:48:18.108Z,95016.44
2022-12-25T20:50:44.504Z,95021.69
2022-12-25T20:53:10.853Z,95028.78
2022-12-25T20:55:37.250Z,95031.41
2022-12-25T20:58:03.654Z,95028.41
2022-12-25T21:00:30.484Z,95037.81
2022-12-25T21:03:00.029Z,95043.56
2022-12-25T21:05:27.857Z,95046.38
2022-12-25T21:07:54.676Z,95045.03
2022-12-25T21:10:21.072Z,95055.84
2022-12-25T21:12:47.419Z,95058.63
2022-12-25T21:15:15.939Z,95056.38
2022-12-25T21:17:42.485Z,95057.97
2022-12-25T21:20:13.725Z,95057.28
2022-12-25T21:22:40.211Z,95057.06
2022-12-25T21:25:10.889Z,95053.78
2022-12-25T21:27:37.507Z,95066.72
2022-12-25T21:30:15.171Z,95069.13
2022-12-25T21:32:42.598Z,95073.94
2022-12-25T21:35:09.002Z,95077.34
2022-12-25T21:37:35.560Z,95073.88
2022-12-25T21:40:02.284Z,95076.66
2022-12-25T21:42:28.746Z,95082.69
2022-12-25T21:44:55.467Z,95081.03
2022-12-25T21:47:22.122Z,95089.56
2022-12-25T21:49:48.805Z,95090.72
2022-12-25T21:52:17.820Z,95090.19
2022-12-25T21:54:44.315Z,95084.91
2022-12-25T21:57:10.696Z,95085.25
2022-12-25T21:59:38.267Z,95079.31
2022-12-25T22:02:04.924Z,95073.38
2022-12-25T22:04:31.823Z,95084.84
2022-12-25T22:07:00.613Z,95093.72
2022-12-25T22:09:27.725Z,95085.16
2022-12-25T22:11:56.304Z,95082.97
2022-12-25T22:14:52.586Z,95084.75
2022-12-25T22:17:15.185Z,95089.94
2022-12-25T22:19:41.606Z,95098.72
2022-12-25T22:22:07.958Z,95105.31
2022-12-25T22:24:34.808Z,95104.47
2022-12-25T22:27:03.466Z,95090.75
2022-12-25T22:29:32.725Z,95099.31
2022-12-25T22:31:59.441Z,95106.19
2022-12-25T22:34:26.130Z,95101.78
2022-12-25T22:36:52.525Z,95105.25
2022-12-25T22:39:18.917Z,95107.34
2022-12-25T22:41:46.308Z,95115.66
2022-12-25T22:44:17.844Z,95117.72
2022-12-25T22:46:45.891Z,95128.53
2022-12-25T22:49:12.482Z,95124.72
2022-12-25T22:51:39.101Z,95138.50
2022-12-25T22:54:05.638Z,95130.47
2022-12-25T22:56:33.080Z,95139.34
2022-12-25T22:58:59.623Z,95135.09
2022-12-25T23:01:26.396Z,95133.34
2022-12-25T23:03:54.745Z,95137.91
2022-12-25T23:06:24.186Z,95139.69
2022-12-25T23:08:50.993Z,95145.78
2022-12-25T23:11:17.467Z,95155.13
2022-12-25T23:13:44.060Z,95154.78
2022-12-25T23:16:10.965Z,95154.34
2022-12-25T23:21:19.266Z,95149.53
2022-12-25T23:23:49.952Z,95143.34
2022-12-25T23:26:18.897Z,95140.72
2022-12-25T23:28:45.691Z,95137.53
2022-12-25T23:31:12.216Z,95150.25
2022-12-25T23:33:39.324Z,95147.88
2022-12-25T23:36:05.733Z,95147.06
2022-12-25T23:38:33.100Z,95148.31
2022-12-25T23:40:59.954Z,95144.47
2022-12-25T23:43:26.337Z,95149.53
2022-12-25T23:45:52.785Z,95144.16
2022-12-25T23:48:21.714Z,95145.84
2022-12-25T23:50:48.226Z,95149.94
2022-12-25T23:53:14.802Z,95151.19
2022-12-25T23:55:42.673Z,95147.88
2022-12-25T23:58:09.281Z,95146.47
